Time;durP1;ratioP1;P1;durP2;ratioP2;P2;SDS_P1;SDS_P2;PMS_P1;PMS_P2;Temp;Humidity;BMP_temperature;BMP_pressure;BME280_temperature;BME280_humidity;BME280_pressure;Samples;Min_cycle;Max_cycle;Signal;HPM_P1;HPM_P2
2022/10/01 00:02:06;;;;;;;19.83;11.90;;;;;;;12.43;95.99;98024.38;10333643;28;20073;-59
2022/10/01 00:07:09;;;;;;;18.33;11.65;;;;;;;12.34;96.11;98016.59;10333509;28;20080;-59
2022/10/01 00:12:08;;;;;;;21.38;13.27;;;;;;;12.38;96.39;98026.13;10333953;28;20477;-59
2022/10/01 00:17:07;;;;;;;17.17;12.70;;;;;;;12.32;96.42;98014.88;10332762;28;20554;-59
2022/10/01 00:22:06;;;;;;;18.73;13.23;;;;;;;12.26;96.50;98013.16;10332998;28;20119;-59
2022/10/01 00:27:05;;;;;;;17.92;12.07;;;;;;;12.22;96.33;98008.81;10329951;28;20035;-59
2022/10/01 00:32:04;;;;;;;16.50;12.65;;;;;;;12.19;96.65;97988.88;10329117;28;20513;-59
2022/10/01 00:37:03;;;;;;;16.00;12.35;;;;;;;12.19;96.49;97981.06;10328786;28;20017;-59
2022/10/01 00:42:22;;;;;;;;;;;;;;;12.15;96.67;97983.69;10330203;28;20495;-59
2022/10/01 00:47:35;;;;;;;16.02;11.13;;;;;;;12.08;97.62;97994.09;10331552;28;20375;-59
2022/10/01 00:52:39;;;;;;;15.63;11.60;;;;;;;12.07;97.03;97986.31;10334705;28;20057;-57
2022/10/01 00:57:39;;;;;;;20.08;11.70;;;;;;;12.15;97.32;97999.31;10336057;28;20064;-57
2022/10/01 01:02:40;;;;;;;19.08;11.80;;;;;;;12.10;97.48;97994.13;10334665;28;20333;-60
2022/10/01 01:07:46;;;;;;;16.73;10.85;;;;;;;11.92;98.19;97996.75;10336225;28;20072;-58
2022/10/01 01:12:54;;;;;;;19.33;10.63;;;;;;;11.91;97.46;97995.91;10334217;28;20061;-57
2022/10/01 01:18:30;;;;;;;19.73;11.32;;;;;;;11.88;97.74;97999.38;10335124;28;20053;-58
2022/10/01 01:23:40;;;;;;;17.15;11.00;;;;;;;11.87;97.12;98000.22;10334995;28;20071;-58
2022/10/01 01:28:45;;;;;;;21.83;12.10;;;;;;;11.78;97.20;97992.47;10336002;28;20069;-58
2022/10/01 01:33:48;;;;;;;17.38;11.27;;;;;;;11.76;97.28;97993.31;10333997;28;20082;-58
2022/10/01 01:39:03;;;;;;;17.90;11.85;;;;;;;11.73;97.11;97991.59;10334940;28;20068;-58
2022/10/01 01:44:07;;;;;;;17.40;11.13;;;;;;;11.60;98.37;97984.72;10334065;28;20068;-60
2022/10/01 01:49:06;;;;;;;16.83;11.70;;;;;;;11.41;98.67;97987.31;10334160;28;20065;-59
2022/10/01 01:54:06;;;;;;;18.52;11.85;;;;;;;11.32;98.89;97984.72;10333719;28;20057;-59
2022/10/01 01:59:07;;;;;;;16.80;11.75;;;;;;;11.25;99.46;97985.59;10333554;28;20068;-59
2022/10/01 02:04:21;;;;;;;18.27;11.80;;;;;;;10.93;100.00;97989.03;10334814;28;20100;-59
2022/10/01 02:09:34;;;;;;;15.48;12.05;;;;;;;10.96;100.00;97991.66;10333564;28;20080;-59
2022/10/01 02:15:09;;;;;;;17.45;13.23;;;;;;;10.98;100.00;97970.84;10332987;28;20080;-59
2022/10/01 02:20:23;;;;;;;20.70;14.57;;;;;;;10.97;100.00;97988.16;10330497;28;20060;-59
2022/10/01 02:25:26;;;;;;;22.27;14.73;;;;;;;10.92;100.00;97995.09;10334888;28;20061;-59
2022/10/01 02:30:28;;;;;;;19.75;15.00;;;;;;;10.90;100.00;97995.97;10335263;28;20473;-59
2022/10/01 02:35:30;;;;;;;21.67;14.55;;;;;;;10.90;100.00;98002.00;10335296;28;20073;-60
2022/10/01 02:40:34;;;;;;;19.80;14.70;;;;;;;10.90;100.00;98015.00;10335453;28;20057;-59
2022/10/01 02:45:36;;;;;;;23.25;15.32;;;;;;;10.90;100.00;98012.41;10335341;28;20049;-59
2022/10/01 02:50:48;;;;;;;21.42;14.15;;;;;;;10.89;100.00;98023.63;10334721;28;20494;-58
2022/10/01 02:55:49;;;;;;;22.70;14.75;;;;;;;10.84;100.00;98022.72;10335428;28;20065;-58
2022/10/01 03:00:48;;;;;;;19.17;14.18;;;;;;;10.81;100.00;98017.53;10334810;28;20061;-58
2022/10/01 03:05:47;;;;;;;20.00;14.15;;;;;;;10.86;100.00;98015.81;10333390;28;20025;-58
2022/10/01 03:10:46;;;;;;;20.73;14.68;;;;;;;10.84;100.00;98002.81;10334176;28;20468;-58
2022/10/01 03:15:45;;;;;;;23.17;15.07;;;;;;;10.68;100.00;97982.03;10334068;28;20030;-58
2022/10/01 03:20:46;;;;;;;;;;;;;;;10.86;100.00;98015.81;10334811;28;20077;-58
2022/10/01 03:25:45;;;;;;;21.27;15.63;;;;;;;10.85;100.00;98011.50;10332269;28;19956;-58
2022/10/01 03:30:44;;;;;;;23.02;15.43;;;;;;;10.88;100.00;98006.34;10330610;28;20034;-58
2022/10/01 03:35:43;;;;;;;22.48;15.70;;;;;;;10.89;100.00;98009.78;10330539;28;20051;-58
2022/10/01 03:40:42;;;;;;;23.63;16.23;;;;;;;10.93;100.00;98011.53;10330344;28;20120;-58
2022/10/01 03:45:41;;;;;;;24.20;16.10;;;;;;;10.97;100.00;98008.09;10330453;28;20500;-58
2022/10/01 03:50:40;;;;;;;27.23;16.35;;;;;;;10.87;100.00;97991.63;10329503;28;20029;-58
2022/10/01 03:55:39;;;;;;;31.98;18.73;;;;;;;10.96;100.00;98035.78;10330783;28;20499;-58
2022/10/01 04:00:38;;;;;;;;;;;;;;;11.01;100.00;98022.78;10330152;28;20060;-58
2022/10/01 04:05:37;;;;;;;24.63;16.17;;;;;;;11.04;100.00;98013.28;10328530;28;20337;-58
2022/10/01 04:10:37;;;;;;;25.27;17.13;;;;;;;10.97;100.00;97995.09;10329346;28;20061;-58
2022/10/01 04:15:36;;;;;;;29.80;17.13;;;;;;;11.00;100.00;98018.47;10315827;28;20087;-58
2022/10/01 04:20:36;;;;;;;26.17;15.05;;;;;;;10.82;100.00;98001.09;10370011;28;20021;-59
2022/10/01 04:25:35;;;;;;;21.20;15.40;;;;;;;10.66;100.00;98007.09;10378674;28;20069;-59
2022/10/01 04:30:37;;;;;;;23.17;14.30;;;;;;;10.62;100.00;97975.09;10377660;28;20107;-60
2022/10/01 04:35:36;;;;;;;21.13;14.90;;;;;;;10.55;100.00;97994.97;10346994;28;20077;-57
2022/10/01 04:40:36;;;;;;;18.65;14.02;;;;;;;10.57;100.00;97976.81;10333501;28;20494;-59
2022/10/01 04:45:38;;;;;;;19.98;13.45;;;;;;;10.59;100.00;97980.28;10334871;28;20523;-59
2022/10/01 04:50:37;;;;;;;21.48;13.40;;;;;;;10.61;100.00;97988.91;10336074;28;20507;-59
2022/10/01 04:55:36;;;;;;;20.95;13.82;;;;;;;10.63;100.00;97979.41;10338343;28;20460;-59
2022/10/01 05:00:35;;;;;;;;;;;;;;;10.72;100.00;97975.97;10338235;28;20061;-59
2022/10/01 05:05:34;;;;;;;19.27;14.38;;;;;;;10.86;100.00;97989.00;10337161;28;20168;-59
2022/10/01 05:10:34;;;;;;;22.75;16.35;;;;;;;11.01;100.00;97989.03;10337368;28;20034;-59
2022/10/01 05:15:34;;;;;;;25.50;16.50;;;;;;;11.13;100.00;97998.59;10337510;28;20073;-59
2022/10/01 05:20:33;;;;;;;20.98;14.45;;;;;;;11.43;100.00;97988.19;10336535;28;20064;-59
2022/10/01 05:25:32;;;;;;;18.02;14.20;;;;;;;11.76;100.00;97999.41;10336617;28;20076;-58
2022/10/01 05:30:32;;;;;;;17.73;14.32;;;;;;;12.01;99.39;98009.75;10336673;28;20037;-59
2022/10/01 05:35:31;;;;;;;60.55;21.27;;;;;;;12.32;99.61;98007.06;10336259;28;20088;-59
2022/10/01 05:40:30;;;;;;;104.03;25.52;;;;;;;12.72;99.10;98018.19;10336624;28;20064;-61
2022/10/01 05:45:31;;;;;;;55.55;15.90;;;;;;;12.94;97.64;98018.91;10336028;28;20087;-58
2022/10/01 05:50:33;;;;;;;38.70;13.95;;;;;;;13.25;96.53;98037.81;10335369;28;20072;-60
2022/10/01 05:55:35;;;;;;;16.45;11.80;;;;;;;13.50;94.65;98033.28;10329005;28;20072;-58
2022/10/01 06:00:36;;;;;;;16.30;12.02;;;;;;;13.71;93.11;98047.91;10362081;28;20056;-59
2022/10/01 06:05:35;;;;;;;18.98;11.55;;;;;;;13.90;92.73;98038.16;10374154;28;20483;-60
2022/10/01 06:10:35;;;;;;;15.15;11.85;;;;;;;14.05;91.62;98033.66;10374088;28;20483;-58
2022/10/01 06:15:37;;;;;;;17.40;12.20;;;;;;;14.12;91.39;98014.44;10374089;28;20079;-58
2022/10/01 06:20:37;;;;;;;21.40;12.63;;;;;;;14.32;90.64;97998.56;10373755;28;20083;-59
2022/10/01 06:25:40;;;;;;;23.33;15.68;;;;;;;14.47;90.16;98000.97;10372171;28;20065;-60
2022/10/01 06:30:39;;;;;;;31.00;17.75;;;;;;;14.24;89.64;98003.91;10373546;28;20080;-60
2022/10/01 06:35:42;;;;;;;21.10;16.35;;;;;;;14.36;89.91;98008.09;10373125;28;20051;-60
2022/10/01 06:40:41;;;;;;;18.13;14.80;;;;;;;14.49;89.91;97998.34;10374501;28;20065;-60
2022/10/01 06:45:41;;;;;;;21.73;15.30;;;;;;;14.88;88.94;98012.66;10373464;28;20068;-60
2022/10/01 06:50:42;;;;;;;21.33;15.88;;;;;;;15.02;88.10;97995.03;10374435;28;20075;-60
2022/10/01 06:55:41;;;;;;;19.42;14.73;;;;;;;15.05;86.38;98001.97;10374133;28;20106;-60
2022/10/01 07:00:40;;;;;;;25.65;21.15;;;;;;;14.61;88.50;98012.09;10374087;28;20029;-60
2022/10/01 07:05:40;;;;;;;25.77;21.95;;;;;;;14.63;89.56;98009.47;10373495;28;20422;-59
2022/10/01 07:10:39;;;;;;;28.60;24.75;;;;;;;15.02;89.54;98007.25;10373841;28;20480;-60
2022/10/01 07:15:39;;;;;;;25.98;22.75;;;;;;;15.35;89.01;97991.91;10374089;28;20064;-60
2022/10/01 07:20:39;;;;;;;25.60;21.35;;;;;;;15.57;87.93;98001.13;10373223;28;20068;-60
2022/10/01 07:25:39;;;;;;;26.48;21.98;;;;;;;15.71;85.41;98005.25;10375424;28;20471;-60
2022/10/01 07:30:39;;;;;;;36.33;27.52;;;;;;;15.93;84.72;97975.22;10376900;28;20080;-60
2022/10/01 07:35:38;;;;;;;28.75;19.52;;;;;;;16.23;83.71;97989.47;10376437;28;20084;-60
2022/10/01 07:40:37;;;;;;;;;;;;;;;16.44;84.02;98014.38;10377066;28;20033;-60
2022/10/01 07:45:35;;;;;;;20.00;16.27;;;;;;;16.77;84.76;98009.31;10376282;28;19909;-60
2022/10/01 07:50:34;;;;;;;;;;;;;;;17.12;82.67;97997.19;10376612;28;20447;-60
2022/10/01 07:55:33;;;;;;;18.90;14.50;;;;;;;17.68;82.23;97991.44;10377860;28;19908;-60
2022/10/01 08:00:33;;;;;;;33.13;24.50;;;;;;;18.29;80.98;97989.84;10384390;28;20033;-60
2022/10/01 08:05:34;;;;;;;14.77;10.32;;;;;;;18.96;74.00;97973.84;10384343;28;20036;-60
2022/10/01 08:10:35;;;;;;;24.65;19.35;;;;;;;19.57;69.30;97967.53;10383931;28;20075;-60
2022/10/01 08:15:34;;;;;;;14.15;10.40;;;;;;;20.15;66.75;97936.50;10383618;28;20055;-60
2022/10/01 08:20:33;;;;;;;14.70;9.43;;;;;;;20.80;64.76;97950.78;10384079;28;20049;-60
2022/10/01 08:25:33;;;;;;;12.52;8.85;;;;;;;21.09;62.58;97935.56;10381472;28;20024;-60
2022/10/01 08:30:32;;;;;;;15.38;10.40;;;;;;;21.60;61.25;97929.06;10379689;28;20064;-60
2022/10/01 08:35:32;;;;;;;21.35;16.90;;;;;;;21.92;60.99;97937.34;10379978;28;20132;-60
2022/10/01 08:40:41;;;;;;;12.30;9.63;;;;;;;22.31;61.32;97957.69;10379174;28;20060;-60
2022/10/01 08:45:50;;;;;;;33.97;23.73;;;;;;;22.47;58.86;97957.84;10379090;28;20068;-60
2022/10/01 08:50:56;;;;;;;32.88;21.02;;;;;;;22.55;55.86;97967.16;10379201;28;20071;-60
2022/10/01 08:55:57;;;;;;;11.57;8.20;;;;;;;22.67;55.12;97963.09;10378741;28;20075;-60
2022/10/01 09:00:56;;;;;;;17.20;13.43;;;;;;;22.84;52.20;97948.25;10378343;28;20075;-60
2022/10/01 09:06:15;;;;;;;15.40;7.18;;;;;;;23.12;50.36;97942.47;10378287;28;20068;-60
2022/10/01 09:11:34;;;;;;;10.93;6.13;;;;;;;23.41;50.68;97930.44;10377521;28;20068;-60
2022/10/01 09:17:18;;;;;;;6.72;4.20;;;;;;;23.45;48.02;97937.28;10378290;28;20072;-60
2022/10/01 09:22:33;;;;;;;6.82;4.28;;;;;;;23.53;48.31;97951.03;10314358;28;20076;-60
2022/10/01 09:27:33;;;;;;;7.68;3.80;;;;;;;23.72;47.89;97955.41;10370021;28;20491;-57
2022/10/01 09:32:40;;;;;;;8.55;3.55;;;;;;;23.81;47.20;97939.03;10377253;28;20091;-58
2022/10/01 09:37:43;;;;;;;9.80;4.07;;;;;;;23.84;46.15;97941.50;10377070;28;20578;-60
2022/10/01 09:42:42;;;;;;;9.30;3.40;;;;;;;23.91;46.52;97926.16;10377018;28;20527;-60
2022/10/01 09:47:49;;;;;;;6.53;2.90;;;;;;;23.94;45.90;97958.66;10376689;28;20511;-60
2022/10/01 09:52:50;;;;;;;7.35;3.30;;;;;;;23.87;46.60;97982.94;10376450;28;20075;-60
2022/10/01 09:58:12;;;;;;;7.50;3.47;;;;;;;23.88;46.37;98003.19;10376203;28;20065;-60
2022/10/01 10:03:21;;;;;;;6.32;3.00;;;;;;;23.72;46.02;97997.78;10375954;28;20747;-60
2022/10/01 10:08:35;;;;;;;10.35;3.80;;;;;;;23.59;46.64;98003.72;10375835;28;20064;-60
2022/10/01 10:13:49;;;;;;;5.65;3.13;;;;;;;23.52;47.26;98034.09;10376202;28;20452;-60
2022/10/01 10:18:51;;;;;;;6.63;3.58;;;;;;;23.44;49.41;98026.50;10375722;28;20067;-58
2022/10/01 10:23:56;;;;;;;5.80;3.15;;;;;;;23.37;51.00;97997.72;10376243;28;20068;-60
2022/10/01 10:28:55;;;;;;;8.88;3.13;;;;;;;23.12;52.17;97967.16;10378667;28;20064;-60
2022/10/01 10:33:58;;;;;;;5.88;3.10;;;;;;;22.88;51.98;97949.78;10378439;28;20085;-60
2022/10/01 10:38:58;;;;;;;5.80;3.22;;;;;;;22.80;52.28;97977.47;10378100;28;20504;-58
2022/10/01 10:44:07;;;;;;;5.97;3.70;;;;;;;22.67;52.75;98002.78;10378384;28;20119;-60
2022/10/01 10:49:20;;;;;;;6.90;3.45;;;;;;;22.57;52.77;97973.22;10377977;28;20087;-60
2022/10/01 10:54:32;;;;;;;6.90;3.40;;;;;;;22.47;53.14;97961.34;10377695;28;20068;-60
2022/10/01 10:59:32;;;;;;;8.32;3.92;;;;;;;22.42;52.88;97955.44;10377653;28;20061;-60
2022/10/01 11:04:37;;;;;;;6.88;3.13;;;;;;;22.41;53.14;97989.84;10377459;28;20047;-59
2022/10/01 11:10:06;;;;;;;5.45;2.90;;;;;;;22.34;53.54;97979.59;10377353;28;20369;-59
2022/10/01 11:15:30;;;;;;;7.03;3.03;;;;;;;22.45;54.12;97965.00;10376946;28;20475;-59
2022/10/01 11:20:54;;;;;;;7.78;2.72;;;;;;;22.34;54.09;97939.03;10376976;28;20036;-61
2022/10/01 11:26:27;;;;;;;7.10;3.20;;;;;;;22.42;54.74;97949.28;10363041;28;20128;-60
2022/10/01 11:32:02;;;;;;;6.15;3.92;;;;;;;22.42;54.59;97947.50;10372616;28;20504;-60
2022/10/01 11:37:31;;;;;;;9.18;3.33;;;;;;;22.41;55.38;97931.69;10373421;28;20076;-60
2022/10/01 11:42:35;;;;;;;8.90;3.10;;;;;;;22.32;54.79;97902.13;10372870;28;20067;-60
2022/10/01 11:47:54;;;;;;;6.15;2.47;;;;;;;22.42;55.25;97902.53;10372820;28;20059;-60
2022/10/01 11:52:56;;;;;;;5.50;2.90;;;;;;;22.42;54.85;97915.75;10372979;28;20107;-60
2022/10/01 12:03:36;;;;;;;4.97;2.50;;;;;;;22.48;54.90;97870.50;10372060;28;20064;-60
2022/10/01 12:08:37;;;;;;;5.80;2.40;;;;;;;22.79;56.46;97879.69;10372295;28;20065;-60
2022/10/01 12:13:42;;;;;;;7.97;2.85;;;;;;;22.90;57.37;97852.66;10372180;28;20519;-59
2022/10/01 12:19:16;;;;;;;4.55;2.40;;;;;;;22.94;58.44;97843.66;10372277;28;20511;-60
2022/10/01 12:24:21;;;;;;;7.60;2.28;;;;;;;23.00;57.37;97838.06;10371135;28;20072;-59
2022/10/01 12:29:38;;;;;;;8.32;2.85;;;;;;;23.04;56.62;97826.38;10371705;28;20534;-60
2022/10/01 12:35:01;;;;;;;5.07;2.95;;;;;;;23.06;56.24;97834.25;10371436;28;20084;-59
2022/10/01 12:40:01;;;;;;;4.45;2.55;;;;;;;23.02;55.65;97833.53;10344810;28;20057;-59
2022/10/01 12:45:43;;;;;;;8.35;3.22;;;;;;;23.22;54.42;97830.72;10336139;28;20068;-59
2022/10/01 12:50:50;;;;;;;7.47;2.70;;;;;;;23.64;52.78;97837.41;10337454;28;20508;-59
2022/10/01 12:56:06;;;;;;;4.78;2.78;;;;;;;24.26;51.97;97834.13;10338153;28;20072;-59
2022/10/01 13:01:22;;;;;;;3.75;2.17;;;;;;;24.46;49.65;97804.72;10337937;28;20064;-60
2022/10/01 13:06:24;;;;;;;6.45;2.00;;;;;;;24.51;50.11;97783.22;10337621;28;20534;-60
2022/10/01 13:11:38;;;;;;;3.95;2.00;;;;;;;24.46;50.27;97775.53;10336809;28;20061;-60
2022/10/01 13:17:13;;;;;;;3.95;2.55;;;;;;;24.20;51.76;97741.69;10335651;28;20516;-59
2022/10/01 13:22:18;;;;;;;5.25;2.50;;;;;;;23.88;53.95;97693.94;10336405;28;20073;-60
2022/10/01 13:27:38;;;;;;;6.57;2.03;;;;;;;23.74;55.18;97624.97;10339989;28;20064;-60
2022/10/01 13:32:56;;;;;;;4.75;2.30;;;;;;;23.81;54.94;97626.34;10339729;28;20489;-61
2022/10/01 13:37:56;;;;;;;2.95;2.00;;;;;;;24.04;56.16;97665.63;10339735;28;20057;-60
2022/10/01 13:43:01;;;;;;;5.05;2.08;;;;;;;24.31;55.47;97654.44;10339834;28;20033;-59
2022/10/01 13:48:09;;;;;;;21.00;13.07;;;;;;;24.47;52.33;97672.94;10339406;28;20057;-59
2022/10/01 13:53:19;;;;;;;12.57;5.53;;;;;;;24.45;52.65;97696.03;10338777;28;20060;-59
2022/10/01 13:58:33;;;;;;;4.05;2.00;;;;;;;24.21;52.73;97703.63;10338999;28;20037;-59
2022/10/01 14:03:49;;;;;;;6.10;2.30;;;;;;;24.10;53.33;97698.03;10338766;28;20069;-59
2022/10/01 14:08:59;;;;;;;6.60;2.30;;;;;;;24.17;53.93;97654.31;10338556;28;20092;-59
2022/10/01 14:19:27;;;;;;;4.57;2.55;;;;;;;24.48;54.17;97659.59;10338814;28;20396;-59
2022/10/01 14:24:50;;;;;;;6.47;3.40;;;;;;;24.48;55.10;97646.31;10336506;28;20073;-60
2022/10/01 14:29:57;;;;;;;7.20;2.80;;;;;;;24.51;54.89;97618.75;10334648;28;20472;-60
2022/10/01 14:35:18;;;;;;;5.28;2.60;;;;;;;24.59;54.84;97608.56;10333964;28;20085;-59
2022/10/01 14:40:19;;;;;;;7.10;2.70;;;;;;;24.68;54.28;97597.38;10333978;28;20061;-60
2022/10/01 14:45:18;;;;;;;7.82;3.15;;;;;;;24.68;53.67;97589.44;10333207;28;20072;-60
2022/10/01 14:50:19;;;;;;;8.80;3.67;;;;;;;24.64;52.61;97577.28;10333642;28;20526;-60
2022/10/01 14:55:21;;;;;;;4.32;2.58;;;;;;;24.66;52.71;97577.16;10333335;28;20488;-60
2022/10/01 15:00:22;;;;;;;9.65;5.28;;;;;;;24.65;52.34;97562.22;10331097;28;20060;-59
2022/10/01 15:05:29;;;;;;;9.85;5.32;;;;;;;24.49;51.90;97568.44;10332876;28;20475;-60
2022/10/01 15:10:28;;;;;;;6.35;3.60;;;;;;;24.32;51.81;97560.66;10332124;28;20890;-60
2022/10/01 15:15:32;;;;;;;5.80;2.75;;;;;;;23.89;52.91;97560.50;10327462;28;20370;-60
2022/10/01 15:20:31;;;;;;;5.57;2.60;;;;;;;23.62;55.04;97563.78;10290393;28;20180;-59
2022/10/01 15:25:31;;;;;;;5.65;2.65;;;;;;;23.39;54.94;97556.25;10370601;28;20067;-60
2022/10/01 15:30:34;;;;;;;11.27;8.52;;;;;;;23.14;55.70;97532.94;10371971;28;20068;-60
2022/10/01 15:35:34;;;;;;;9.95;5.18;;;;;;;22.91;56.32;97534.22;10355610;28;20072;-60
2022/10/01 15:40:35;;;;;;;23.88;17.73;;;;;;;22.54;58.30;97530.88;10297782;28;20136;-60
2022/10/01 15:45:34;;;;;;;90.95;69.15;;;;;;;22.35;59.07;97521.25;10293135;28;20551;-60
2022/10/01 15:50:37;;;;;;;45.88;37.97;;;;;;;22.25;58.84;97509.47;10295208;28;20069;-60
2022/10/01 15:55:49;;;;;;;40.58;28.25;;;;;;;22.33;59.43;97504.63;10330050;28;20069;-59
2022/10/01 16:00:55;;;;;;;24.95;13.10;;;;;;;22.16;59.85;97504.66;10333340;28;20498;-60
2022/10/01 16:05:55;;;;;;;15.98;9.25;;;;;;;22.04;62.42;97481.47;10329719;28;20508;-60
2022/10/01 16:11:12;;;;;;;12.88;7.22;;;;;;;21.82;61.99;97479.91;10329840;28;20073;-60
2022/10/01 16:16:28;;;;;;;11.18;5.82;;;;;;;21.59;62.30;97435.31;10330840;28;20068;-60
2022/10/01 16:21:27;;;;;;;8.30;3.70;;;;;;;21.50;62.58;97432.22;10338065;28;20068;-59
2022/10/01 16:26:26;;;;;;;7.55;4.55;;;;;;;21.34;62.98;97426.84;10358463;28;20083;-59
2022/10/01 16:31:26;;;;;;;11.15;6.03;;;;;;;21.30;63.48;97414.75;10351168;28;20107;-60
2022/10/01 16:36:25;;;;;;;9.55;4.90;;;;;;;21.29;63.91;97415.69;10368060;28;20508;-59
2022/10/01 16:41:25;;;;;;;12.40;4.78;;;;;;;21.29;64.96;97404.28;10378156;28;20515;-60
2022/10/01 16:46:26;;;;;;;11.13;5.65;;;;;;;21.25;65.85;97398.28;10376506;28;20064;-60
2022/10/01 16:51:25;;;;;;;14.30;7.78;;;;;;;21.15;66.20;97397.00;10361587;28;20053;-60
2022/10/01 16:56:24;;;;;;;12.18;5.90;;;;;;;21.10;66.38;97380.53;10371190;28;20065;-60
2022/10/01 17:01:30;;;;;;;48.53;32.28;;;;;;;21.00;67.13;97371.38;10376611;28;20025;-60
2022/10/01 17:06:29;;;;;;;25.52;16.65;;;;;;;21.01;68.00;97362.50;10376568;28;20520;-60
2022/10/01 17:11:28;;;;;;;24.40;14.93;;;;;;;20.89;68.38;97351.66;10376327;28;20025;-60
2022/10/01 17:16:28;;;;;;;20.48;13.40;;;;;;;20.82;68.92;97334.44;10364666;28;20479;-59
2022/10/01 17:21:28;;;;;;;15.05;8.57;;;;;;;20.73;68.95;97315.53;10312225;28;20072;-59
2022/10/01 17:26:27;;;;;;;12.95;6.47;;;;;;;20.65;68.60;97327.31;10334876;28;20061;-59
2022/10/01 17:31:27;;;;;;;38.72;27.15;;;;;;;20.47;68.33;97320.31;10334791;28;20080;-59
2022/10/01 17:36:26;;;;;;;22.55;13.88;;;;;;;20.42;69.83;97309.13;10334484;28;20081;-59
2022/10/01 17:41:25;;;;;;;27.40;23.52;;;;;;;20.19;72.99;97308.41;10334852;28;20021;-59
2022/10/01 17:46:24;;;;;;;12.68;9.45;;;;;;;20.10;73.81;97308.84;10333141;28;20073;-59
2022/10/01 17:51:24;;;;;;;12.45;9.55;;;;;;;19.89;74.79;97320.38;10328182;28;20029;-59
2022/10/01 17:56:23;;;;;;;14.82;8.02;;;;;;;19.63;75.19;97325.03;10333096;28;20801;-59
2022/10/01 18:01:22;;;;;;;6.57;4.30;;;;;;;19.60;74.21;97318.13;10333814;28;20528;-59
2022/10/01 18:06:23;;;;;;;11.23;5.40;;;;;;;19.65;73.40;97304.75;10333170;28;20492;-59
2022/10/01 18:11:24;;;;;;;8.15;3.28;;;;;;;19.56;71.94;97266.53;10333624;28;20065;-59
2022/10/01 18:16:24;;;;;;;8.50;3.80;;;;;;;19.55;72.10;97267.41;10333413;28;20060;-59
2022/10/01 18:21:23;;;;;;;11.05;5.03;;;;;;;19.48;73.35;97273.03;10326210;28;20511;-59
2022/10/01 18:26:22;;;;;;;6.47;4.70;;;;;;;19.22;74.94;97257.44;10348680;28;20345;-59
2022/10/01 18:31:26;;;;;;;10.25;4.80;;;;;;;19.06;75.01;97255.56;10336983;28;20116;-60
2022/10/01 18:36:53;;;;;;;7.22;3.50;;;;;;;18.89;75.37;97275.53;10294877;28;20076;-60
2022/10/01 18:41:53;;;;;;;8.70;4.30;;;;;;;18.96;75.15;97245.44;10293859;28;20057;-60
2022/10/01 18:47:10;;;;;;;7.15;4.05;;;;;;;19.01;74.63;97235.56;10294960;28;20540;-60
2022/10/01 18:52:24;;;;;;;8.02;5.30;;;;;;;19.01;74.62;97226.84;10294678;28;20061;-61
2022/10/01 18:57:54;;;;;;;15.07;6.55;;;;;;;18.96;75.26;97207.78;10360581;28;20129;-60
2022/10/01 19:03:24;;;;;;;12.45;7.07;;;;;;;18.89;76.17;97180.03;10294808;28;20049;-60
2022/10/01 19:08:41;;;;;;;13.20;6.90;;;;;;;18.82;76.96;97154.00;10293528;28;20033;-60
2022/10/01 19:14:18;;;;;;;11.80;7.07;;;;;;;18.74;77.37;97169.28;10293172;28;20551;-60
2022/10/01 19:19:29;;;;;;;14.25;6.65;;;;;;;18.74;77.70;97148.25;10294213;28;20084;-60
2022/10/01 19:24:53;;;;;;;16.13;8.25;;;;;;;18.68;78.57;97118.72;10333507;28;20183;-60
2022/10/01 19:29:53;;;;;;;18.17;9.63;;;;;;;18.52;79.50;97134.28;10324129;28;20053;-60
2022/10/01 19:35:02;;;;;;;16.50;9.23;;;;;;;18.48;79.98;97154.59;10329954;28;20530;-60
2022/10/01 19:40:15;;;;;;;13.73;8.40;;;;;;;18.47;80.28;97155.50;10331168;28;20057;-59
2022/10/01 19:45:43;;;;;;;13.80;8.00;;;;;;;18.33;81.91;97149.97;10330217;28;20072;-59
2022/10/01 19:50:48;;;;;;;15.60;7.95;;;;;;;18.27;82.33;97130.09;10329013;28;20077;-59
2022/10/01 19:55:51;;;;;;;11.52;6.78;;;;;;;18.09;83.36;97150.06;10338393;28;20068;-60
2022/10/01 20:00:55;;;;;;;12.43;6.07;;;;;;;17.84;85.18;97212.34;10338349;28;20057;-61
2022/10/01 20:06:07;;;;;;;5.57;3.60;;;;;;;17.55;85.97;97332.34;10338696;28;20111;-60
2022/10/01 20:11:19;;;;;;;7.40;2.90;;;;;;;17.71;88.16;97404.34;10339071;28;20072;-59
2022/10/01 20:16:42;;;;;;;18.55;5.68;;;;;;;17.65;95.30;97435.19;10336971;28;20068;-59
2022/10/01 20:21:50;;;;;;;18.58;5.75;;;;;;;17.25;98.04;97379.69;10337530;28;20057;-60
2022/10/01 20:27:15;;;;;;;16.88;5.82;;;;;;;17.01;99.32;97250.31;10337454;28;20068;-60
2022/10/01 20:32:22;;;;;;;9.77;4.55;;;;;;;16.86;100.00;97228.13;10335893;28;20073;-59
2022/10/01 20:37:56;;;;;;;14.70;4.55;;;;;;;16.75;100.00;97192.66;10336546;28;20072;-59
2022/10/01 20:43:03;;;;;;;9.18;4.28;;;;;;;16.68;100.00;97221.72;10328190;28;20072;-60
2022/10/01 20:48:13;;;;;;;15.15;5.25;;;;;;;16.55;100.00;97199.44;10336237;28;20061;-60
2022/10/01 20:53:37;;;;;;;15.40;6.00;;;;;;;16.39;100.00;97235.75;10336175;28;20543;-60
2022/10/01 20:58:45;;;;;;;20.65;11.32;;;;;;;16.29;100.00;97264.00;10335721;28;20061;-60
2022/10/01 21:04:05;;;;;;;14.82;7.78;;;;;;;16.27;100.00;97267.59;10335165;28;20064;-60
2022/10/01 21:09:24;;;;;;;13.23;5.15;;;;;;;16.46;100.00;97310.59;10335274;28;20065;-60
2022/10/01 21:14:33;;;;;;;14.90;5.47;;;;;;;16.46;100.00;97294.88;10335541;28;20211;-59
2022/10/01 21:19:41;;;;;;;11.38;4.70;;;;;;;16.54;100.00;97258.00;10335043;28;20056;-59
2022/10/01 21:25:04;;;;;;;12.27;4.72;;;;;;;16.59;100.00;97242.97;10335529;28;20064;-59
2022/10/01 21:30:13;;;;;;;10.95;5.32;;;;;;;16.46;100.00;97221.56;10335150;28;20496;-59
2022/10/01 21:35:47;;;;;;;11.13;4.97;;;;;;;16.27;100.00;97259.72;10334210;28;20306;-60
2022/10/01 21:40:46;;;;;;;12.38;5.72;;;;;;;16.39;100.00;97298.63;10335198;28;20109;-59
2022/10/01 21:46:09;;;;;;;11.88;5.15;;;;;;;16.41;100.00;97314.28;10334153;28;20093;-59
2022/10/01 21:51:34;;;;;;;8.45;4.57;;;;;;;16.33;100.00;97308.44;10334064;28;20067;-59
2022/10/01 21:57:03;;;;;;;11.90;4.63;;;;;;;16.48;100.00;97300.94;10333511;28;20069;-60
2022/10/01 22:02:07;;;;;;;9.25;4.55;;;;;;;16.54;100.00;97341.81;10334497;28;20072;-60
2022/10/01 22:07:09;;;;;;;12.57;4.72;;;;;;;16.54;100.00;97369.78;10333159;28;20071;-60
2022/10/01 22:12:09;;;;;;;7.78;4.50;;;;;;;16.45;100.00;97340.34;10333148;28;20057;-60
2022/10/01 22:17:23;;;;;;;13.20;4.65;;;;;;;16.65;100.00;97349.31;10332295;28;20072;-60
2022/10/01 22:22:37;;;;;;;10.57;4.38;;;;;;;16.72;100.00;97342.97;10329285;28;20061;-60
2022/10/01 22:27:43;;;;;;;9.25;4.55;;;;;;;16.68;100.00;97336.13;10328495;28;20061;-60
2022/10/01 22:32:54;;;;;;;12.57;4.82;;;;;;;16.65;100.00;97328.34;10329234;28;20148;-60
2022/10/01 22:38:04;;;;;;;11.27;4.95;;;;;;;16.49;100.00;97318.38;10331869;28;20068;-60
2022/10/01 22:43:09;;;;;;;10.48;5.05;;;;;;;16.61;100.00;97337.25;10331038;28;20053;-60
2022/10/01 22:48:11;;;;;;;8.80;4.65;;;;;;;16.68;100.00;97351.88;10332004;28;20080;-60
2022/10/01 22:53:33;;;;;;;10.50;5.28;;;;;;;16.76;100.00;97360.31;10331587;28;20061;-60
2022/10/01 22:58:32;;;;;;;10.02;5.57;;;;;;;16.78;100.00;97339.31;10328067;28;20639;-60
2022/10/01 23:03:40;;;;;;;10.30;4.85;;;;;;;16.73;100.00;97310.66;10330788;28;20420;-60
2022/10/01 23:08:39;;;;;;;8.57;5.67;;;;;;;16.76;100.00;97315.78;10331433;28;20504;-59
2022/10/01 23:13:55;;;;;;;13.82;5.38;;;;;;;16.71;100.00;97318.53;10330547;28;20497;-59
2022/10/01 23:19:02;;;;;;;9.57;4.90;;;;;;;16.78;100.00;97329.69;10330379;28;20522;-59
2022/10/01 23:24:25;;;;;;;8.48;4.75;;;;;;;16.71;100.00;97344.75;10331902;28;20065;-59
2022/10/01 23:29:33;;;;;;;6.53;4.03;;;;;;;16.67;100.00;97334.41;10332944;28;20068;-59
2022/10/01 23:34:43;;;;;;;8.15;5.30;;;;;;;16.57;100.00;97349.56;10333797;28;20080;-59
2022/10/01 23:40:06;;;;;;;8.45;5.85;;;;;;;16.55;100.00;97366.25;10334072;28;20081;-59